Time;durP1;ratioP1;P1;durP2;ratioP2;P2;SDS_P1;SDS_P2;PMS_P1;PMS_P2;Temp;Humidity;BMP_temperature;BMP_pressure;BME280_temperature;BME280_humidity;BME280_pressure;Samples;Min_cycle;Max_cycle;Signal;HPM_P1;HPM_P2
2023/12/14 00:00:19;;;;;;;90.97;33.20;;;;;;;;;;5014854;28;20107;-78
2023/12/14 00:02:47;;;;;;;77.03;30.20;;;;;;;;;;5006941;28;20046;-78
2023/12/14 00:05:13;;;;;;;98.20;36.20;;;;;;;;;;5010329;28;20029;-77
2023/12/14 00:07:39;;;;;;;100.10;37.40;;;;;;;;;;5029850;28;20052;-77
2023/12/14 00:10:05;;;;;;;110.33;37.10;;;;;;;;;;5013154;28;20029;-78
2023/12/14 00:12:31;;;;;;;127.30;40.30;;;;;;;;;;5010393;28;20087;-78
2023/12/14 00:14:57;;;;;;;119.20;39.53;;;;;;;;;;5031996;28;20034;-77
2023/12/14 00:17:23;;;;;;;121.67;38.43;;;;;;;;;;5007653;28;20040;-78
2023/12/14 00:19:49;;;;;;;125.27;40.67;;;;;;;;;;5008016;28;20029;-77
2023/12/14 00:22:15;;;;;;;127.53;40.50;;;;;;;;;;5012697;28;20557;-78
2023/12/14 00:24:42;;;;;;;121.90;39.97;;;;;;;;;;5027963;28;20033;-77
2023/12/14 00:27:08;;;;;;;116.53;38.63;;;;;;;;;;5015848;28;20060;-78
2023/12/14 00:29:34;;;;;;;122.57;39.60;;;;;;;;;;5016111;28;20061;-78
2023/12/14 00:32:00;;;;;;;112.80;40.23;;;;;;;;;;5029545;28;20054;-77
2023/12/14 00:34:29;;;;;;;121.47;40.23;;;;;;;;;;5031978;28;20036;-77
2023/12/14 00:36:55;;;;;;;119.20;39.40;;;;;;;;;;5014457;28;20033;-78
2023/12/14 00:39:21;;;;;;;124.57;41.23;;;;;;;;;;5030238;28;20037;-77
2023/12/14 00:41:47;;;;;;;113.50;41.07;;;;;;;;;;5012865;28;20108;-79
2023/12/14 00:44:13;;;;;;;111.27;39.43;;;;;;;;;;5015260;28;20032;-78
2023/12/14 00:46:41;;;;;;;124.20;40.43;;;;;;;;;;5015567;28;20205;-77
2023/12/14 00:49:08;;;;;;;102.47;37.00;;;;;;;;;;5032856;28;20053;-78
2023/12/14 00:51:34;;;;;;;112.27;39.30;;;;;;;;;;5018259;28;20057;-78
2023/12/14 00:54:00;;;;;;;109.20;39.83;;;;;;;;;;5033939;28;20480;-76
2023/12/14 00:56:26;;;;;;;102.83;38.70;;;;;;;;;;5034335;28;20025;-77
2023/12/14 00:58:54;;;;;;;108.77;38.20;;;;;;;;;;5017691;28;20406;-79
2023/12/14 01:01:20;;;;;;;108.67;38.70;;;;;;;;;;5018471;28;20034;-78
2023/12/14 01:03:46;;;;;;;116.23;39.40;;;;;;;;;;5035878;28;20033;-78
2023/12/14 01:06:12;;;;;;;115.33;38.60;;;;;;;;;;5032298;28;20087;-78
2023/12/14 01:08:40;;;;;;;113.17;38.37;;;;;;;;;;5018521;28;20369;-77
2023/12/14 01:11:07;;;;;;;116.70;39.80;;;;;;;;;;5016896;28;20030;-77
2023/12/14 01:13:36;;;;;;;141.93;45.30;;;;;;;;;;5033909;28;20029;-78
2023/12/14 01:16:02;;;;;;;138.83;42.60;;;;;;;;;;5016828;28;20025;-77
2023/12/14 01:18:28;;;;;;;139.60;43.63;;;;;;;;;;5031954;28;20138;-78
2023/12/14 01:20:54;;;;;;;138.93;44.07;;;;;;;;;;5033802;28;20043;-78
2023/12/14 01:23:20;;;;;;;142.23;44.30;;;;;;;;;;5034235;28;20049;-77
2023/12/14 01:25:46;;;;;;;138.60;43.83;;;;;;;;;;5031815;28;20035;-77
2023/12/14 01:28:13;;;;;;;145.10;43.80;;;;;;;;;;5017307;28;20502;-78
2023/12/14 01:30:39;;;;;;;153.93;45.07;;;;;;;;;;5016506;28;20025;-77
2023/12/14 01:33:05;;;;;;;127.13;42.67;;;;;;;;;;5017679;28;20049;-78
2023/12/14 01:35:40;;;;;;;145.87;43.80;;;;;;;;;;5016044;28;20030;-78
2023/12/14 01:38:09;;;;;;;141.17;45.13;;;;;;;;;;5034830;28;20532;-78
2023/12/14 01:40:35;;;;;;;147.43;46.27;;;;;;;;;;5018142;28;20029;-78
2023/12/14 01:43:10;;;;;;;133.00;43.67;;;;;;;;;;5034398;28;20111;-77
2023/12/14 01:45:39;;;;;;;133.63;44.60;;;;;;;;;;5016386;28;20061;-78
2023/12/14 01:48:05;;;;;;;149.43;46.97;;;;;;;;;;5017489;28;20117;-78
2023/12/14 01:50:31;;;;;;;151.50;46.97;;;;;;;;;;5018298;28;20037;-79
2023/12/14 01:52:57;;;;;;;127.63;43.67;;;;;;;;;;5017675;28;20445;-77
2023/12/14 01:55:25;;;;;;;131.60;43.40;;;;;;;;;;5017369;28;20044;-77
2023/12/14 01:57:51;;;;;;;128.17;45.73;;;;;;;;;;5015664;28;20458;-78
2023/12/14 02:00:22;;;;;;;128.00;44.57;;;;;;;;;;5016862;28;20033;-78
2023/12/14 02:02:48;;;;;;;138.83;44.60;;;;;;;;;;5016751;28;20857;-78
2023/12/14 02:05:14;;;;;;;127.87;46.47;;;;;;;;;;5019435;28;20041;-78
2023/12/14 02:07:40;;;;;;;126.30;43.00;;;;;;;;;;5017150;28;20083;-78
2023/12/14 02:10:07;;;;;;;125.57;43.37;;;;;;;;;;5016277;28;20037;-78
2023/12/14 02:12:34;;;;;;;128.27;43.77;;;;;;;;;;5018162;28;20412;-78
2023/12/14 02:15:00;;;;;;;130.33;44.53;;;;;;;;;;5017364;28;20025;-78
2023/12/14 02:17:28;;;;;;;142.53;45.73;;;;;;;;;;5017265;28;20072;-78
2023/12/14 02:19:54;;;;;;;126.10;47.00;;;;;;;;;;5015223;28;20037;-78
2023/12/14 02:22:20;;;;;;;125.00;44.47;;;;;;;;;;5018552;28;20029;-78
2023/12/14 02:24:46;;;;;;;143.00;45.33;;;;;;;;;;5017566;28;20037;-78
2023/12/14 02:27:12;;;;;;;142.83;47.33;;;;;;;;;;5036944;28;20052;-78
2023/12/14 02:29:40;;;;;;;122.07;44.50;;;;;;;;;;5033271;28;20127;-78
2023/12/14 02:32:06;;;;;;;120.10;40.30;;;;;;;;;;5018982;28;20045;-78
2023/12/14 02:34:32;;;;;;;121.97;41.23;;;;;;;;;;5016417;28;20029;-78
2023/12/14 02:36:58;;;;;;;111.47;39.37;;;;;;;;;;5011942;28;20120;-78
2023/12/14 02:39:24;;;;;;;95.13;36.67;;;;;;;;;;5015670;28;20036;-77
2023/12/14 02:41:50;;;;;;;88.00;34.40;;;;;;;;;;5013646;28;20104;-78
2023/12/14 02:44:16;;;;;;;88.13;34.73;;;;;;;;;;5016010;28;20148;-78
2023/12/14 02:46:44;;;;;;;98.67;35.23;;;;;;;;;;5015385;28;20044;-78
2023/12/14 02:49:10;;;;;;;91.53;35.00;;;;;;;;;;5013865;28;20064;-78
2023/12/14 02:51:36;;;;;;;81.30;31.90;;;;;;;;;;5016280;28;20053;-79
2023/12/14 02:54:02;;;;;;;90.83;29.33;;;;;;;;;;5015042;28;20884;-78
2023/12/14 02:56:28;;;;;;;91.00;33.17;;;;;;;;;;5015696;28;20025;-78
2023/12/14 02:58:54;;;;;;;81.73;31.63;;;;;;;;;;5014144;28;20037;-78
2023/12/14 03:01:24;;;;;;;78.00;28.77;;;;;;;;;;5015213;28;20102;-77
2023/12/14 03:03:50;;;;;;;82.73;30.97;;;;;;;;;;5033905;28;20043;-78
2023/12/14 03:06:16;;;;;;;84.10;30.53;;;;;;;;;;5015537;28;20104;-77
2023/12/14 03:08:42;;;;;;;84.83;31.93;;;;;;;;;;5016486;28;20035;-78
2023/12/14 03:11:07;;;;;;;81.60;30.23;;;;;;;;;;5013531;28;20033;-77
2023/12/14 03:13:37;;;;;;;85.60;31.93;;;;;;;;;;5015066;28;20048;-78
2023/12/14 03:16:03;;;;;;;85.07;31.57;;;;;;;;;;5027463;28;20091;-78
2023/12/14 03:18:29;;;;;;;87.90;30.10;;;;;;;;;;5014838;28;20037;-77
2023/12/14 03:20:55;;;;;;;80.93;28.33;;;;;;;;;;5015847;28;20029;-78
2023/12/14 03:23:21;;;;;;;75.63;27.87;;;;;;;;;;5027987;28;20037;-78
2023/12/14 03:25:48;;;;;;;66.03;26.60;;;;;;;;;;5032570;28;20491;-78
2023/12/14 03:28:14;;;;;;;65.97;26.60;;;;;;;;;;5029862;28;20037;-78
2023/12/14 03:30:42;;;;;;;78.27;29.00;;;;;;;;;;5014406;28;20095;-78
2023/12/14 03:33:08;;;;;;;71.07;27.93;;;;;;;;;;5033051;28;20033;-78
2023/12/14 03:35:35;;;;;;;67.00;26.00;;;;;;;;;;5015487;28;20064;-78
2023/12/14 03:38:01;;;;;;;62.83;25.33;;;;;;;;;;5031974;28;20087;-78
2023/12/14 03:40:27;;;;;;;68.27;27.40;;;;;;;;;;5028874;28;20033;-78
2023/12/14 03:42:53;;;;;;;56.17;25.10;;;;;;;;;;5014565;28;20059;-78
2023/12/14 03:45:19;;;;;;;58.97;26.13;;;;;;;;;;5009445;28;20114;-79
2023/12/14 03:47:45;;;;;;;60.10;26.57;;;;;;;;;;5015373;28;20030;-78
2023/12/14 03:50:12;;;;;;;78.53;30.23;;;;;;;;;;5032911;28;20456;-78
2023/12/14 03:52:41;;;;;;;68.27;29.00;;;;;;;;;;5014624;28;20029;-77
2023/12/14 03:55:07;;;;;;;70.53;28.33;;;;;;;;;;5026532;28;20080;-77
2023/12/14 03:57:33;;;;;;;70.03;30.43;;;;;;;;;;5028632;28;20076;-76
2023/12/14 03:59:59;;;;;;;71.63;28.93;;;;;;;;;;5032431;28;20470;-78
2023/12/14 04:02:25;;;;;;;77.03;29.73;;;;;;;;;;5029749;28;20029;-78
2023/12/14 04:04:53;;;;;;;67.90;30.53;;;;;;;;;;5014168;28;20025;-79
2023/12/14 04:07:19;;;;;;;69.60;30.10;;;;;;;;;;5029056;28;20025;-78
2023/12/14 04:09:48;;;;;;;75.10;30.83;;;;;;;;;;5014344;28;20750;-78
2023/12/14 04:12:17;;;;;;;84.97;33.80;;;;;;;;;;5030855;28;20029;-77
2023/12/14 04:14:43;;;;;;;105.40;38.63;;;;;;;;;;5027191;28;20059;-78
2023/12/14 04:17:09;;;;;;;88.57;37.03;;;;;;;;;;5015413;28;20029;-77
2023/12/14 04:19:35;;;;;;;95.93;38.97;;;;;;;;;;5014705;28;20030;-79
2023/12/14 04:22:01;;;;;;;89.73;40.10;;;;;;;;;;5017175;28;20048;-77
2023/12/14 04:24:30;;;;;;;91.17;38.33;;;;;;;;;;5036525;28;20029;-77
2023/12/14 04:26:56;;;;;;;94.43;40.87;;;;;;;;;;5032702;28;20030;-78
2023/12/14 04:29:22;;;;;;;103.60;41.27;;;;;;;;;;5016492;28;20029;-78
2023/12/14 04:31:48;;;;;;;105.80;41.83;;;;;;;;;;5018760;28;20030;-78
2023/12/14 04:34:15;;;;;;;107.30;43.83;;;;;;;;;;5019086;28;20048;-77
2023/12/14 04:36:45;;;;;;;117.57;46.70;;;;;;;;;;5020066;28;20032;-77
2023/12/14 04:39:14;;;;;;;122.03;46.40;;;;;;;;;;5035157;28;20034;-78
2023/12/14 04:41:40;;;;;;;121.67;46.13;;;;;;;;;;5030773;28;20060;-78
2023/12/14 04:44:06;;;;;;;124.67;46.43;;;;;;;;;;5017720;28;20625;-78
2023/12/14 04:46:32;;;;;;;120.07;45.53;;;;;;;;;;5021792;28;20175;-78
2023/12/14 04:48:58;;;;;;;123.00;45.83;;;;;;;;;;5020875;28;20022;-78
2023/12/14 04:51:24;;;;;;;120.57;44.23;;;;;;;;;;5034443;28;20040;-78
2023/12/14 04:53:50;;;;;;;124.60;46.90;;;;;;;;;;5026637;28;20021;-77
2023/12/14 04:56:15;;;;;;;133.90;47.57;;;;;;;;;;5035654;28;20032;-78
2023/12/14 04:58:42;;;;;;;133.87;45.80;;;;;;;;;;5014224;28;20030;-77
2023/12/14 05:01:08;;;;;;;133.57;46.07;;;;;;;;;;5021173;28;20106;-78
2023/12/14 05:03:35;;;;;;;134.33;45.10;;;;;;;;;;5013071;28;20455;-78
2023/12/14 05:06:01;;;;;;;127.53;45.70;;;;;;;;;;5010413;28;20033;-77
2023/12/14 05:08:27;;;;;;;113.77;41.60;;;;;;;;;;5021904;28;20045;-77
2023/12/14 05:10:53;;;;;;;122.60;42.03;;;;;;;;;;5021564;28;20025;-78
2023/12/14 05:13:19;;;;;;;118.47;45.10;;;;;;;;;;5037446;28;20124;-78
2023/12/14 05:15:45;;;;;;;109.20;40.30;;;;;;;;;;5033456;28;20108;-79
2023/12/14 05:18:11;;;;;;;101.60;39.87;;;;;;;;;;5028020;28;20046;-78
2023/12/14 05:20:37;;;;;;;111.17;40.43;;;;;;;;;;5019315;28;20044;-78
2023/12/14 05:23:03;;;;;;;101.10;40.27;;;;;;;;;;5020991;28;20033;-78
2023/12/14 05:25:29;;;;;;;98.63;38.60;;;;;;;;;;5037628;28;20025;-78
2023/12/14 05:27:55;;;;;;;102.20;40.07;;;;;;;;;;5016480;28;20120;-78
2023/12/14 05:30:21;;;;;;;99.57;38.90;;;;;;;;;;5034183;28;20033;-78
2023/12/14 05:32:49;;;;;;;95.97;37.97;;;;;;;;;;5019826;28;20030;-78
2023/12/14 05:35:15;;;;;;;88.90;34.77;;;;;;;;;;5011645;28;20457;-78
2023/12/14 05:37:42;;;;;;;76.83;34.40;;;;;;;;;;5008031;28;20540;-77
2023/12/14 05:40:08;;;;;;;74.63;33.67;;;;;;;;;;5016487;28;20033;-78
2023/12/14 05:42:34;;;;;;;85.23;35.87;;;;;;;;;;5037202;28;20107;-77
2023/12/14 05:45:00;;;;;;;82.63;35.17;;;;;;;;;;5023356;28;20093;-78
2023/12/14 05:47:30;;;;;;;76.20;34.23;;;;;;;;;;5023404;28;20568;-78
2023/12/14 05:49:59;;;;;;;83.13;35.93;;;;;;;;;;5019632;28;20112;-77
2023/12/14 05:52:25;;;;;;;82.47;35.23;;;;;;;;;;5035037;28;20041;-78
2023/12/14 05:54:51;;;;;;;77.77;32.77;;;;;;;;;;5020523;28;20025;-78
2023/12/14 05:57:17;;;;;;;84.43;34.43;;;;;;;;;;5014867;28;20048;-78
2023/12/14 05:59:42;;;;;;;78.63;32.83;;;;;;;;;;5037838;28;20033;-78
2023/12/14 06:02:08;;;;;;;69.07;31.17;;;;;;;;;;5019099;28;20368;-78
2023/12/14 06:04:37;;;;;;;76.67;33.27;;;;;;;;;;5031505;28;20113;-78
2023/12/14 06:07:03;;;;;;;77.93;33.40;;;;;;;;;;5013426;28;20099;-77
2023/12/14 06:09:33;;;;;;;84.27;33.40;;;;;;;;;;5005632;28;20041;-78
2023/12/14 06:12:04;;;;;;;74.63;32.17;;;;;;;;;;5019555;28;20025;-78
2023/12/14 06:14:30;;;;;;;76.00;32.60;;;;;;;;;;5006301;28;20036;-78
2023/12/14 06:16:56;;;;;;;82.00;33.60;;;;;;;;;;5036512;28;20505;-78
2023/12/14 06:19:22;;;;;;;80.27;34.90;;;;;;;;;;5031941;28;20052;-78
2023/12/14 06:21:48;;;;;;;84.27;34.03;;;;;;;;;;5015636;28;21028;-76
2023/12/14 06:24:15;;;;;;;78.63;34.33;;;;;;;;;;5016936;28;20361;-79
2023/12/14 06:26:45;;;;;;;90.43;35.57;;;;;;;;;;5031675;28;20029;-77
2023/12/14 06:29:12;;;;;;;91.60;36.37;;;;;;;;;;5030314;28;20041;-78
2023/12/14 06:31:41;;;;;;;86.47;35.10;;;;;;;;;;5015536;28;20033;-78
2023/12/14 06:34:07;;;;;;;90.03;36.40;;;;;;;;;;5018448;28;20029;-78
2023/12/14 06:36:34;;;;;;;92.37;37.87;;;;;;;;;;5033562;28;20040;-77
2023/12/14 06:39:00;;;;;;;96.77;40.03;;;;;;;;;;5015929;28;20032;-77
2023/12/14 06:41:27;;;;;;;106.57;39.33;;;;;;;;;;5015822;28;20041;-78
2023/12/14 06:43:53;;;;;;;108.07;40.80;;;;;;;;;;5014990;28;20116;-77
2023/12/14 06:46:19;;;;;;;111.13;40.90;;;;;;;;;;5017904;28;20130;-78
2023/12/14 06:48:48;;;;;;;118.87;41.67;;;;;;;;;;5028041;28;20446;-78
2023/12/14 06:51:14;;;;;;;125.87;37.90;;;;;;;;;;5032492;28;20038;-79
2023/12/14 06:53:45;;;;;;;127.70;42.57;;;;;;;;;;5014574;28;20033;-77
2023/12/14 06:56:14;;;;;;;105.70;37.57;;;;;;;;;;5032521;28;20442;-77
2023/12/14 06:58:43;;;;;;;113.87;36.97;;;;;;;;;;5013157;28;20048;-77
2023/12/14 07:01:17;;;;;;;114.13;36.33;;;;;;;;;;5016245;28;20037;-77
2023/12/14 07:03:44;;;;;;;106.93;34.93;;;;;;;;;;5016762;28;20052;-77
2023/12/14 07:06:14;;;;;;;101.03;38.77;;;;;;;;;;5034533;28;20040;-77
2023/12/14 07:08:42;;;;;;;110.13;36.47;;;;;;;;;;5013447;28;20065;-78
2023/12/14 07:11:09;;;;;;;102.87;35.70;;;;;;;;;;5031781;28;20120;-78
2023/12/14 07:13:37;;;;;;;109.50;37.20;;;;;;;;;;5016160;28;20453;-78
2023/12/14 07:16:07;;;;;;;120.93;35.93;;;;;;;;;;5016529;28;20032;-78
2023/12/14 07:18:34;;;;;;;122.40;38.30;;;;;;;;;;5015334;28;20096;-78
2023/12/14 07:21:01;;;;;;;125.63;38.13;;;;;;;;;;5034334;28;20033;-78
2023/12/14 07:23:27;;;;;;;108.13;35.67;;;;;;;;;;5017373;28;20033;-81
2023/12/14 07:25:53;;;;;;;110.30;34.80;;;;;;;;;;5020983;28;20417;-77
2023/12/14 07:28:19;;;;;;;113.77;33.77;;;;;;;;;;5035504;28;20036;-77
2023/12/14 07:30:46;;;;;;;129.30;37.47;;;;;;;;;;5015885;28;20469;-77
2023/12/14 07:33:14;;;;;;;112.07;36.37;;;;;;;;;;5011771;28;20029;-78
2023/12/14 07:35:40;;;;;;;115.87;34.67;;;;;;;;;;5014722;28;20096;-78
2023/12/14 07:38:07;;;;;;;104.10;32.83;;;;;;;;;;5014931;28;20513;-78
2023/12/14 07:40:32;;;;;;;101.50;31.13;;;;;;;;;;5031564;28;20048;-78
2023/12/14 07:42:58;;;;;;;99.97;30.07;;;;;;;;;;5031347;28;20033;-77
2023/12/14 07:45:27;;;;;;;90.83;29.50;;;;;;;;;;5016021;28;20044;-78
2023/12/14 07:47:53;;;;;;;80.80;28.17;;;;;;;;;;5013877;28;20033;-78
2023/12/14 07:50:19;;;;;;;88.47;27.47;;;;;;;;;;5032113;28;20097;-79
2023/12/14 07:52:46;;;;;;;91.43;28.77;;;;;;;;;;5033438;28;20030;-78
2023/12/14 07:55:13;;;;;;;84.77;27.93;;;;;;;;;;5013320;28;20053;-77
2023/12/14 07:57:40;;;;;;;76.73;27.40;;;;;;;;;;5031632;28;20031;-78
2023/12/14 08:00:08;;;;;;;89.73;29.37;;;;;;;;;;5014827;28;21743;-78
2023/12/14 08:02:34;;;;;;;81.73;27.20;;;;;;;;;;5016806;28;20554;-79
2023/12/14 08:05:00;;;;;;;83.50;26.73;;;;;;;;;;5033320;28;20029;-79
2023/12/14 08:07:29;;;;;;;81.33;25.90;;;;;;;;;;5014492;28;20041;-77
2023/12/14 08:09:56;;;;;;;80.30;27.03;;;;;;;;;;5015380;28;20052;-77
2023/12/14 08:12:22;;;;;;;69.87;25.33;;;;;;;;;;5031923;28;20045;-77
2023/12/14 08:14:48;;;;;;;73.23;25.13;;;;;;;;;;5033367;28;20476;-77
2023/12/14 08:17:14;;;;;;;75.27;25.30;;;;;;;;;;5013886;28;20030;-78
2023/12/14 08:19:40;;;;;;;72.60;24.53;;;;;;;;;;5013992;28;20036;-78
2023/12/14 08:22:07;;;;;;;73.97;23.87;;;;;;;;;;5030443;28;20354;-78
2023/12/14 08:24:33;;;;;;;65.00;24.53;;;;;;;;;;5015122;28;20021;-78
2023/12/14 08:26:59;;;;;;;62.00;22.47;;;;;;;;;;5015405;28;20026;-78
2023/12/14 08:29:28;;;;;;;68.60;23.50;;;;;;;;;;5017937;28;20044;-78
2023/12/14 08:31:56;;;;;;;59.90;24.03;;;;;;;;;;5031642;28;20021;-79
2023/12/14 08:34:23;;;;;;;67.30;24.27;;;;;;;;;;5016413;28;20445;-78
2023/12/14 08:36:49;;;;;;;70.20;23.83;;;;;;;;;;5013311;28;20037;-78
2023/12/14 08:39:15;;;;;;;67.50;22.80;;;;;;;;;;5013381;28;20039;-77
2023/12/14 08:41:44;;;;;;;64.57;23.47;;;;;;;;;;5030550;28;20044;-76
2023/12/14 08:44:13;;;;;;;65.37;23.40;;;;;;;;;;5013697;28;20033;-78
2023/12/14 08:46:43;;;;;;;66.17;23.63;;;;;;;;;;5015926;28;20041;-78
2023/12/14 08:49:09;;;;;;;63.63;21.83;;;;;;;;;;5011838;28;20067;-77
2023/12/14 08:51:35;;;;;;;66.73;23.93;;;;;;;;;;5028994;28;20037;-77
2023/12/14 08:54:01;;;;;;;64.37;24.67;;;;;;;;;;5013472;28;20064;-77
2023/12/14 08:56:27;;;;;;;73.23;25.20;;;;;;;;;;5014029;28;20036;-77
2023/12/14 08:58:55;;;;;;;82.17;26.47;;;;;;;;;;5014103;28;20028;-77
2023/12/14 09:01:24;;;;;;;71.53;25.93;;;;;;;;;;5031171;28;20034;-77
2023/12/14 09:03:50;;;;;;;77.23;26.40;;;;;;;;;;5032185;28;20056;-76
2023/12/14 09:06:16;;;;;;;73.30;26.73;;;;;;;;;;5014431;28;20214;-77
2023/12/14 09:08:45;;;;;;;73.70;24.77;;;;;;;;;;5016490;28;20057;-76
2023/12/14 09:11:11;;;;;;;86.70;29.40;;;;;;;;;;5016483;28;20040;-76
2023/12/14 09:13:37;;;;;;;98.50;33.30;;;;;;;;;;5032360;28;20021;-76
2023/12/14 09:16:03;;;;;;;91.03;30.70;;;;;;;;;;5029012;28;20040;-76
2023/12/14 09:18:30;;;;;;;97.23;31.13;;;;;;;;;;5016322;28;20029;-74
2023/12/14 09:20:56;;;;;;;87.73;29.93;;;;;;;;;;5015602;28;20126;-75
2023/12/14 09:23:22;;;;;;;95.57;30.13;;;;;;;;;;5028752;28;20129;-76
2023/12/14 09:25:55;;;;;;;92.67;32.47;;;;;;;;;;5012470;28;20033;-76
2023/12/14 09:28:21;;;;;;;88.07;29.73;;;;;;;;;;5015599;28;20150;-75
2023/12/14 09:30:50;;;;;;;89.03;29.17;;;;;;;;;;5015140;28;20064;-76
2023/12/14 09:33:16;;;;;;;92.63;29.97;;;;;;;;;;5033804;28;20029;-76
2023/12/14 09:35:42;;;;;;;89.90;31.17;;;;;;;;;;5015546;28;20025;-74
2023/12/14 09:38:08;;;;;;;95.60;29.63;;;;;;;;;;5015870;28;20040;-76
2023/12/14 09:40:34;;;;;;;96.17;28.83;;;;;;;;;;5014664;28;20033;-76
2023/12/14 09:43:01;;;;;;;101.30;31.00;;;;;;;;;;5014604;28;20033;-75
2023/12/14 09:45:33;;;;;;;102.27;33.30;;;;;;;;;;5014857;28;20045;-76
2023/12/14 09:48:00;;;;;;;86.28;27.60;;;;;;;;;;5016736;28;20104;-76
2023/12/14 09:50:26;;;;;;;96.33;30.93;;;;;;;;;;5013870;28;20450;-77
2023/12/14 09:52:52;;;;;;;98.70;30.43;;;;;;;;;;5013889;28;20025;-76
2023/12/14 09:55:18;;;;;;;90.37;28.67;;;;;;;;;;5016129;28;20438;-76
2023/12/14 09:57:47;;;;;;;95.47;29.90;;;;;;;;;;5033380;28;20033;-76
2023/12/14 10:00:14;;;;;;;82.87;27.93;;;;;;;;;;5031214;28;20041;-75
2023/12/14 10:02:41;;;;;;;93.30;30.03;;;;;;;;;;5032851;28;20037;-76
2023/12/14 10:05:10;;;;;;;99.93;30.77;;;;;;;;;;5014814;28;20607;-75
2023/12/14 10:07:42;;;;;;;91.73;30.07;;;;;;;;;;5014948;28;20056;-75
2023/12/14 10:10:13;;;;;;;100.38;29.73;;;;;;;;;;5015061;28;20362;-76
2023/12/14 10:12:54;;;;;;;97.37;29.67;;;;;;;;;;5031892;28;20022;-76
2023/12/14 10:15:23;;;;;;;83.13;26.57;;;;;;;;;;5013691;28;20025;-75
2023/12/14 10:17:53;;;;;;;99.03;31.20;;;;;;;;;;5030780;28;20064;-75
2023/12/14 10:20:23;;;;;;;102.13;30.27;;;;;;;;;;5014105;28;20095;-75
2023/12/14 10:22:50;;;;;;;92.37;30.57;;;;;;;;;;5030162;28;20033;-76
2023/12/14 10:25:18;;;;;;;85.87;29.20;;;;;;;;;;5027377;28;20351;-76
2023/12/14 10:27:47;;;;;;;90.93;28.90;;;;;;;;;;5013694;28;20098;-76
2023/12/14 10:30:15;;;;;;;96.30;32.03;;;;;;;;;;5031189;28;20071;-76
2023/12/14 10:32:41;;;;;;;88.80;31.33;;;;;;;;;;5015080;28;20021;-76
2023/12/14 10:35:07;;;;;;;93.27;32.37;;;;;;;;;;5015663;28;21778;-75
2023/12/14 10:37:40;;;;;;;106.20;34.30;;;;;;;;;;5016500;28;20024;-76
2023/12/14 10:40:10;;;;;;;100.13;31.90;;;;;;;;;;5030043;28;20037;-75
2023/12/14 10:42:37;;;;;;;120.53;33.93;;;;;;;;;;5016559;28;20126;-76
2023/12/14 10:45:06;;;;;;;97.40;32.27;;;;;;;;;;5019274;28;20104;-77
2023/12/14 10:47:35;;;;;;;98.27;32.80;;;;;;;;;;5013080;28;20033;-76
2023/12/14 10:50:03;;;;;;;100.07;32.60;;;;;;;;;;5009917;28;20029;-77
2023/12/14 10:52:33;;;;;;;98.90;31.93;;;;;;;;;;5015685;28;20034;-76
2023/12/14 10:55:01;;;;;;;89.27;30.87;;;;;;;;;;5009218;28;20430;-76
2023/12/14 10:57:27;;;;;;;108.20;33.23;;;;;;;;;;5034457;28;20030;-76
2023/12/14 11:00:00;;;;;;;103.70;33.90;;;;;;;;;;5006621;28;20018;-76
2023/12/14 11:02:29;;;;;;;109.90;34.13;;;;;;;;;;5008583;28;20065;-76
2023/12/14 11:05:04;;;;;;;97.37;31.90;;;;;;;;;;5014636;28;20446;-76
2023/12/14 11:07:49;;;;;;;91.23;30.63;;;;;;;;;;5024663;28;20338;-76
2023/12/14 11:10:16;;;;;;;90.33;30.27;;;;;;;;;;5031519;28;20037;-76
2023/12/14 11:12:52;;;;;;;85.70;28.70;;;;;;;;;;5025785;28;20080;-76
2023/12/14 11:15:19;;;;;;;86.80;31.20;;;;;;;;;;5023523;28;20028;-75
2023/12/14 11:18:05;;;;;;;83.13;31.17;;;;;;;;;;5018704;28;20091;-75
2023/12/14 11:20:31;;;;;;;82.87;28.47;;;;;;;;;;5010614;28;20080;-75
2023/12/14 11:23:08;;;;;;;82.47;28.20;;;;;;;;;;5011158;28;20373;-76
2023/12/14 11:25:35;;;;;;;80.07;30.13;;;;;;;;;;5007410;28;20053;-76
2023/12/14 11:28:05;;;;;;;86.10;30.20;;;;;;;;;;5013007;28;20021;-77
2023/12/14 11:30:31;;;;;;;88.87;31.30;;;;;;;;;;5034822;28;20040;-76
2023/12/14 11:32:58;;;;;;;85.33;29.27;;;;;;;;;;5013143;28;20075;-76
2023/12/14 11:35:24;;;;;;;84.40;29.43;;;;;;;;;;5007212;28;20108;-75
2023/12/14 11:37:49;;;;;;;89.30;31.07;;;;;;;;;;5014976;28;20553;-76
2023/12/14 11:40:22;;;;;;;90.70;32.57;;;;;;;;;;5010888;28;20025;-76
2023/12/14 11:42:49;;;;;;;;;;;;;;;;;;5016952;28;20028;-76
2023/12/14 11:45:15;;;;;;;91.70;29.47;;;;;;;;;;5009662;28;19999;-76
2023/12/14 11:47:43;;;;;;;89.33;30.00;;;;;;;;;;5015203;28;20030;-75
2023/12/14 11:50:11;;;;;;;88.73;30.97;;;;;;;;;;5031537;28;20067;-76
2023/12/14 11:52:40;;;;;;;85.13;32.33;;;;;;;;;;5034645;28;20025;-76
2023/12/14 11:55:08;;;;;;;91.13;31.83;;;;;;;;;;5018296;28;20017;-77
2023/12/14 11:57:34;;;;;;;84.37;29.83;;;;;;;;;;5019550;28;20018;-78
2023/12/14 12:00:00;;;;;;;81.30;28.73;;;;;;;;;;5018880;28;20083;-77
2023/12/14 12:02:26;;;;;;;81.77;28.03;;;;;;;;;;5020035;28;20034;-78
2023/12/14 12:04:52;;;;;;;87.20;30.77;;;;;;;;;;5022348;28;20026;-77
2023/12/14 12:07:18;;;;;;;80.47;29.10;;;;;;;;;;5006883;28;20057;-77
2023/12/14 12:09:44;;;;;;;82.97;29.47;;;;;;;;;;5018771;28;20025;-78
2023/12/14 12:12:13;;;;;;;78.23;28.90;;;;;;;;;;5030180;28;20104;-78
2023/12/14 12:14:39;;;;;;;73.50;28.07;;;;;;;;;;5018500;28;20029;-78
2023/12/14 12:17:06;;;;;;;75.70;27.57;;;;;;;;;;5017328;28;20036;-78
2023/12/14 12:19:35;;;;;;;68.43;26.57;;;;;;;;;;5012028;28;20078;-78
2023/12/14 12:22:01;;;;;;;71.90;26.67;;;;;;;;;;5013709;28;21918;-78
2023/12/14 12:24:28;;;;;;;61.60;26.17;;;;;;;;;;5012531;28;20101;-77
2023/12/14 12:26:54;;;;;;;66.37;26.23;;;;;;;;;;5015223;28;20116;-78
2023/12/14 12:29:22;;;;;;;68.73;25.90;;;;;;;;;;5014926;28;20041;-78
2023/12/14 12:31:51;;;;;;;72.73;27.07;;;;;;;;;;5016319;28;20028;-78
2023/12/14 12:34:17;;;;;;;63.10;25.00;;;;;;;;;;5027504;28;20107;-78
2023/12/14 12:36:43;;;;;;;72.33;26.90;;;;;;;;;;5017069;28;20461;-78
2023/12/14 12:39:09;;;;;;;64.63;25.27;;;;;;;;;;5015763;28;20025;-76
2023/12/14 12:41:38;;;;;;;67.40;25.53;;;;;;;;;;5015571;28;20033;-78
2023/12/14 12:44:08;;;;;;;54.97;23.40;;;;;;;;;;5032337;28;20030;-78
2023/12/14 12:46:38;;;;;;;53.50;24.27;;;;;;;;;;5018751;28;20040;-78
2023/12/14 12:49:05;;;;;;;52.43;22.63;;;;;;;;;;5032625;28;20059;-78
2023/12/14 12:51:31;;;;;;;58.80;23.97;;;;;;;;;;5017925;28;20117;-78
2023/12/14 12:53:58;;;;;;;46.23;21.27;;;;;;;;;;5018695;28;20048;-78
2023/12/14 12:56:24;;;;;;;51.63;22.30;;;;;;;;;;5019517;28;20033;-78
2023/12/14 12:58:53;;;;;;;45.13;20.70;;;;;;;;;;5019200;28;20025;-77
2023/12/14 13:01:19;;;;;;;46.70;20.43;;;;;;;;;;5017810;28;20405;-77
2023/12/14 13:03:47;;;;;;;43.03;21.40;;;;;;;;;;5017822;28;20029;-77
2023/12/14 13:06:13;;;;;;;46.77;21.43;;;;;;;;;;5017286;28;20033;-78
2023/12/14 13:08:39;;;;;;;46.40;19.33;;;;;;;;;;5015236;28;21674;-78
2023/12/14 13:11:05;;;;;;;49.73;22.03;;;;;;;;;;5016780;28;20068;-79
2023/12/14 13:13:31;;;;;;;51.40;21.83;;;;;;;;;;5018561;28;20030;-77
2023/12/14 13:15:57;;;;;;;45.53;19.70;;;;;;;;;;5035171;28;20032;-77
2023/12/14 13:18:25;;;;;;;41.30;19.90;;;;;;;;;;5018442;28;20040;-77
2023/12/14 13:20:51;;;;;;;46.17;19.60;;;;;;;;;;5017781;28;20029;-78
2023/12/14 13:23:17;;;;;;;47.47;21.77;;;;;;;;;;5017408;28;20523;-78
2023/12/14 13:25:44;;;;;;;45.47;20.13;;;;;;;;;;5018309;28;20044;-78
2023/12/14 13:28:13;;;;;;;42.00;19.87;;;;;;;;;;5018685;28;20067;-78
2023/12/14 13:30:39;;;;;;;41.67;19.43;;;;;;;;;;5017291;28;20087;-77
2023/12/14 13:33:06;;;;;;;44.67;20.03;;;;;;;;;;5017536;28;20037;-78
2023/12/14 13:35:32;;;;;;;42.43;19.67;;;;;;;;;;5018418;28;20045;-78
2023/12/14 13:38:00;;;;;;;45.20;18.90;;;;;;;;;;5017975;28;20382;-78
2023/12/14 13:40:29;;;;;;;42.03;19.10;;;;;;;;;;5016545;28;20029;-78
2023/12/14 13:42:59;;;;;;;42.07;20.17;;;;;;;;;;5034184;28;20044;-78
2023/12/14 13:45:29;;;;;;;37.83;18.00;;;;;;;;;;5016184;28;20057;-78
2023/12/14 13:47:55;;;;;;;42.37;18.70;;;;;;;;;;5016924;28;20029;-76
2023/12/14 13:50:21;;;;;;;37.23;17.70;;;;;;;;;;5018313;28;20370;-79
2023/12/14 13:52:50;;;;;;;36.60;17.10;;;;;;;;;;5016860;28;20030;-77
2023/12/14 13:55:16;;;;;;;35.20;17.43;;;;;;;;;;5017660;28;20033;-78
2023/12/14 13:57:45;;;;;;;32.17;16.03;;;;;;;;;;5015837;28;20033;-78
2023/12/14 14:00:11;;;;;;;32.67;16.03;;;;;;;;;;5017832;28;20039;-77
2023/12/14 14:02:37;;;;;;;28.33;14.13;;;;;;;;;;5017806;28;20072;-77
2023/12/14 14:05:03;;;;;;;27.80;14.13;;;;;;;;;;5035382;28;20033;-77
2023/12/14 14:07:31;;;;;;;28.10;11.33;;;;;;;;;;5030778;28;20439;-78
2023/12/14 14:09:57;;;;;;;28.90;13.80;;;;;;;;;;5034104;28;20040;-79
2023/12/14 14:12:23;;;;;;;28.57;13.00;;;;;;;;;;5015509;28;20022;-77